createdAt,value
2022-09-05T00:02:59.722Z,18.40
2022-09-05T00:06:11.603Z,18.40
2022-09-05T00:09:50.781Z,18.40
2022-09-05T00:13:06.741Z,18.40
2022-09-05T00:16:58.358Z,18.40
2022-09-05T00:24:21.999Z,18.40
2022-09-05T00:24:27.843Z,18.40
2022-09-05T00:27:45.289Z,18.50
2022-09-05T00:31:53.956Z,18.50
2022-09-05T00:35:07.600Z,18.60
2022-09-05T00:38:17.482Z,18.60
2022-09-05T00:41:25.637Z,18.60
2022-09-05T00:44:37.607Z,18.60
2022-09-05T00:47:51.195Z,18.50
2022-09-05T00:51:20.895Z,18.50
2022-09-05T00:54:54.714Z,18.50
2022-09-05T00:58:31.783Z,18.40
2022-09-05T01:01:46.536Z,18.40
2022-09-05T01:04:59.264Z,18.40
2022-09-05T01:08:24.513Z,18.30
2022-09-05T01:11:43.470Z,18.30
2022-09-05T01:15:10.436Z,18.30
2022-09-05T01:18:35.975Z,18.30
2022-09-05T01:22:07.663Z,18.30
2022-09-05T01:25:29.612Z,18.20
2022-09-05T01:29:15.493Z,18.20
2022-09-05T01:32:23.221Z,18.20
2022-09-05T01:36:08.131Z,18.20
2022-09-05T01:40:11.261Z,18.20
2022-09-05T01:43:04.722Z,18.10
2022-09-05T01:46:31.635Z,18.10
2022-09-05T01:50:00.795Z,18.20
2022-09-05T01:53:26.472Z,18.20
2022-09-05T01:56:48.747Z,18.20
2022-09-05T02:00:06.343Z,18.30
2022-09-05T02:03:27.943Z,18.30
2022-09-05T02:06:44.154Z,18.40
2022-09-05T02:10:35.079Z,18.40
2022-09-05T02:14:01.854Z,18.40
2022-09-05T02:17:27.368Z,18.40
2022-09-05T02:20:54.502Z,18.50
2022-09-05T02:24:14.091Z,18.60
2022-09-05T02:27:55.056Z,18.70
2022-09-05T02:31:20.227Z,18.80
2022-09-05T02:34:36.366Z,19.00
2022-09-05T02:41:14.708Z,19.10
2022-09-05T02:45:15.039Z,19.20
2022-09-05T02:45:28.258Z,19.20
2022-09-05T02:48:52.049Z,19.30
2022-09-05T02:57:23.822Z,19.30
2022-09-05T02:57:41.752Z,19.30
2022-09-05T02:59:41.952Z,19.30
2022-09-05T03:03:20.680Z,19.30
2022-09-05T03:06:37.206Z,19.30
2022-09-05T03:10:05.610Z,19.30
2022-09-05T03:14:13.843Z,19.30
2022-09-05T03:17:53.459Z,19.30
2022-09-05T03:21:29.328Z,19.30
2022-09-05T03:25:37.867Z,19.30
2022-09-05T03:29:35.611Z,19.30
2022-09-05T03:33:27.085Z,19.30
2022-09-05T03:37:06.989Z,19.30
2022-09-05T03:40:53.189Z,19.40
2022-09-05T03:44:20.840Z,19.40
2022-09-05T03:48:18.723Z,19.40
2022-09-05T03:57:05.272Z,19.30
2022-09-05T03:57:27.829Z,19.30
2022-09-05T03:59:51.557Z,19.20
2022-09-05T04:08:08.321Z,19.10
2022-09-05T04:08:15.978Z,19.10
2022-09-05T04:10:31.310Z,18.90
2022-09-05T04:13:47.585Z,18.80
2022-09-05T04:17:00.962Z,18.70
2022-09-05T04:20:16.777Z,18.70
2022-09-05T04:23:31.431Z,18.60
2022-09-05T04:27:17.102Z,18.60
2022-09-05T04:30:44.228Z,18.60
2022-09-05T04:34:09.590Z,18.50
2022-09-05T04:37:48.938Z,18.50
2022-09-05T04:41:04.486Z,18.40
2022-09-05T04:44:15.982Z,18.40
2022-09-05T04:47:28.888Z,18.40
2022-09-05T04:51:06.200Z,18.40
2022-09-05T04:54:30.207Z,18.40
2022-09-05T04:57:43.636Z,18.30
2022-09-05T05:05:59.724Z,18.30
2022-09-05T05:06:09.938Z,18.30
2022-09-05T05:08:00.624Z,18.30
2022-09-05T05:17:38.269Z,18.30
2022-09-05T05:18:12.193Z,18.20
2022-09-05T05:18:42.241Z,18.20
2022-09-05T05:21:54.718Z,18.20
2022-09-05T05:25:03.378Z,18.10
2022-09-05T05:28:23.907Z,18.10
2022-09-05T05:31:34.087Z,18.00
2022-09-05T05:34:46.225Z,18.00
2022-09-05T05:38:03.845Z,18.00
2022-09-05T05:41:21.086Z,17.90
2022-09-05T05:44:30.648Z,17.90
2022-09-05T05:47:43.129Z,17.90
2022-09-05T05:51:03.847Z,17.90
2022-09-05T05:54:25.845Z,17.90
2022-09-05T05:58:09.650Z,17.90
2022-09-05T06:01:57.969Z,17.90
2022-09-05T06:06:07.793Z,17.80
2022-09-05T06:14:51.529Z,17.80
2022-09-05T06:14:55.518Z,17.70
2022-09-05T06:18:08.490Z,17.80
2022-09-05T06:22:10.743Z,17.70
2022-09-05T06:26:15.993Z,17.70
2022-09-05T06:29:38.265Z,17.80
2022-09-05T06:33:05.192Z,18.00
2022-09-05T06:36:33.333Z,18.30
2022-09-05T06:40:12.883Z,18.60
2022-09-05T06:43:54.266Z,18.90
2022-09-05T06:47:23.932Z,19.20
2022-09-05T06:51:08.362Z,19.60
2022-09-05T06:54:59.890Z,20.00
2022-09-05T06:58:57.939Z,20.40
2022-09-05T07:02:14.054Z,20.70
2022-09-05T07:05:42.636Z,21.20
2022-09-05T07:09:05.666Z,21.80
2022-09-05T07:12:23.633Z,22.20
2022-09-05T07:15:44.310Z,22.70
2022-09-05T07:19:04.361Z,23.10
2022-09-05T07:22:46.629Z,23.50
2022-09-05T07:25:54.335Z,23.70
2022-09-05T07:29:04.662Z,24.00
2022-09-05T07:32:24.247Z,24.30
2022-09-05T07:35:41.512Z,24.70
2022-09-05T07:39:02.257Z,25.10
2022-09-05T07:42:21.399Z,25.10
2022-09-05T07:45:30.426Z,25.00
2022-09-05T07:48:41.887Z,24.80
2022-09-05T07:56:47.161Z,24.60
2022-09-05T07:57:03.850Z,24.50
2022-09-05T07:58:55.716Z,24.40
2022-09-05T08:02:05.811Z,24.40
2022-09-05T08:05:16.565Z,24.30
2022-09-05T08:09:00.309Z,24.30
2022-09-05T08:12:17.692Z,24.30
2022-09-05T08:16:00.801Z,24.30
2022-09-05T08:19:33.626Z,24.30
2022-09-05T08:22:52.208Z,24.30
2022-09-05T08:26:05.841Z,24.40
2022-09-05T08:29:28.268Z,24.40
2022-09-05T08:32:43.592Z,24.50
2022-09-05T08:36:01.029Z,24.60
2022-09-05T08:39:10.390Z,24.60
2022-09-05T08:42:29.747Z,24.60
2022-09-05T08:46:46.841Z,24.70
2022-09-05T08:50:04.967Z,24.80
2022-09-05T08:53:45.252Z,24.90
2022-09-05T08:57:01.304Z,25.00
2022-09-05T09:00:20.467Z,25.10
2022-09-05T09:03:36.809Z,25.30
2022-09-05T09:07:47.016Z,26.00
2022-09-05T09:10:53.220Z,26.90
2022-09-05T09:14:31.103Z,28.20
2022-09-05T09:17:50.518Z,28.90
2022-09-05T09:21:01.629Z,28.90
2022-09-05T09:24:28.200Z,28.90
2022-09-05T09:28:48.915Z,28.90
2022-09-05T09:32:07.827Z,28.90
2022-09-05T09:35:25.047Z,28.60
2022-09-05T09:38:47.873Z,28.40
2022-09-05T09:42:33.361Z,28.10
2022-09-05T09:46:09.842Z,27.90
2022-09-05T09:49:53.621Z,27.60
2022-09-05T09:53:29.431Z,27.60
2022-09-05T09:57:25.466Z,27.50
2022-09-05T10:00:51.488Z,27.40
2022-09-05T10:10:39.581Z,27.30
2022-09-05T10:11:09.534Z,27.30
2022-09-05T10:12:40.419Z,27.50
2022-09-05T10:16:34.691Z,27.70
2022-09-05T10:20:31.141Z,28.60
2022-09-05T10:24:15.896Z,29.80
2022-09-05T10:27:44.569Z,31.60
2022-09-05T10:33:18.340Z,33.20
2022-09-05T10:35:15.400Z,33.70
2022-09-05T10:38:15.890Z,34.20
2022-09-05T10:41:39.449Z,34.90
2022-09-05T10:44:53.449Z,35.60
2022-09-05T10:48:14.072Z,35.80
2022-09-05T10:51:30.398Z,35.80
2022-09-05T10:55:14.882Z,34.80
2022-09-05T10:59:33.122Z,34.00
2022-09-05T11:02:33.582Z,33.70
2022-09-05T11:05:52.280Z,32.60
2022-09-05T11:09:08.059Z,32.10
2022-09-05T11:12:34.403Z,31.80
2022-09-05T11:16:04.930Z,31.80
2022-09-05T11:19:20.200Z,32.00
2022-09-05T11:22:31.307Z,32.30
2022-09-05T11:25:41.021Z,32.90
2022-09-05T11:29:00.298Z,33.50
2022-09-05T11:37:35.804Z,33.40
2022-09-05T11:39:50.487Z,33.90
2022-09-05T11:40:52.440Z,34.00
2022-09-05T11:44:25.563Z,34.50
2022-09-05T11:48:18.740Z,34.70
2022-09-05T11:52:14.389Z,34.80
2022-09-05T11:56:07.423Z,33.80
2022-09-05T11:59:51.342Z,33.20
2022-09-05T12:04:00.286Z,32.50
2022-09-05T12:07:43.438Z,31.90
2022-09-05T12:11:04.454Z,31.60
2022-09-05T12:14:32.498Z,31.60
2022-09-05T12:17:54.179Z,31.30
2022-09-05T12:21:22.621Z,31.10
2022-09-05T12:25:24.249Z,30.90
2022-09-05T12:29:26.070Z,30.80
2022-09-05T12:32:50.357Z,30.60
2022-09-05T12:36:05.996Z,30.60
2022-09-05T12:40:54.835Z,30.50
2022-09-05T12:42:54.791Z,30.40
2022-09-05T12:46:24.415Z,30.60
2022-09-05T12:49:36.659Z,30.70
2022-09-05T12:52:46.455Z,30.70
2022-09-05T12:56:28.255Z,30.60
2022-09-05T13:02:59.553Z,30.60
2022-09-05T13:03:28.361Z,30.70
2022-09-05T13:06:35.414Z,30.80
2022-09-05T13:12:22.114Z,31.20
2022-09-05T13:15:00.832Z,31.80
2022-09-05T13:16:52.079Z,31.90
2022-09-05T13:20:00.076Z,31.50
2022-09-05T13:23:20.219Z,31.40
2022-09-05T13:26:36.775Z,31.20
2022-09-05T13:33:03.476Z,31.20
2022-09-05T13:37:56.585Z,31.30
2022-09-05T13:38:15.899Z,31.40
2022-09-05T13:40:37.261Z,31.20
2022-09-05T13:43:44.481Z,31.00
2022-09-05T13:46:59.042Z,30.70
2022-09-05T13:50:25.771Z,30.60
2022-09-05T13:53:37.229Z,30.70
2022-09-05T13:56:54.373Z,30.80
2022-09-05T14:01:06.809Z,31.00
2022-09-05T14:05:13.402Z,31.00
2022-09-05T14:08:37.282Z,31.00
2022-09-05T14:12:05.211Z,30.90
2022-09-05T14:15:36.519Z,30.50
2022-09-05T14:19:00.983Z,30.20
2022-09-05T14:22:11.456Z,30.00
2022-09-05T14:25:36.290Z,29.80
2022-09-05T14:28:56.254Z,29.70
2022-09-05T14:37:42.858Z,29.50
2022-09-05T14:37:54.598Z,29.40
2022-09-05T14:40:39.027Z,29.10
2022-09-05T14:44:20.510Z,28.80
2022-09-05T14:48:13.246Z,28.50
2022-09-05T14:51:29.983Z,28.30
2022-09-05T15:02:42.572Z,27.80
2022-09-05T15:02:44.080Z,28.00
2022-09-05T15:05:40.593Z,27.70
2022-09-05T15:11:24.446Z,27.50
2022-09-05T15:12:33.123Z,27.40
2022-09-05T15:16:01.953Z,27.30
2022-09-05T15:19:11.712Z,27.10
2022-09-05T15:22:27.436Z,26.90
2022-09-05T15:25:46.342Z,26.70
2022-09-05T15:29:13.992Z,26.40
2022-09-05T15:32:24.347Z,26.20
2022-09-05T15:35:42.449Z,26.10
2022-09-05T15:38:54.423Z,25.90
2022-09-05T15:42:15.419Z,25.90
2022-09-05T15:45:26.241Z,25.70
2022-09-05T15:48:36.192Z,25.60
2022-09-05T15:51:48.048Z,25.60
2022-09-05T15:54:58.522Z,25.50
2022-09-05T15:58:07.850Z,25.50
2022-09-05T16:01:48.639Z,25.50
2022-09-05T16:08:23.688Z,25.40
2022-09-05T16:10:39.495Z,25.40
2022-09-05T16:17:18.412Z,25.30
2022-09-05T16:23:32.904Z,25.20
2022-09-05T16:23:35.247Z,25.00
2022-09-05T16:25:52.336Z,24.80
2022-09-05T16:29:04.089Z,24.60
2022-09-05T16:32:21.819Z,24.60
2022-09-05T16:35:29.884Z,24.60
2022-09-05T16:38:49.763Z,24.60
2022-09-05T16:42:01.234Z,24.60
2022-09-05T16:45:22.685Z,24.40
2022-09-05T16:48:42.623Z,24.10
2022-09-05T16:51:52.538Z,23.60
2022-09-05T16:55:06.131Z,23.20
2022-09-05T16:58:19.664Z,22.90
2022-09-05T17:01:57.788Z,22.60
2022-09-05T17:05:26.174Z,22.30
2022-09-05T17:08:34.335Z,21.80
2022-09-05T17:12:00.331Z,21.30
2022-09-05T17:15:16.495Z,20.90
2022-09-05T17:18:26.960Z,20.30
2022-09-05T17:23:47.202Z,19.90
2022-09-05T17:29:34.131Z,19.60
2022-09-05T17:33:18.178Z,19.30
2022-09-05T17:36:41.024Z,19.30
2022-09-05T17:40:00.240Z,19.30
2022-09-05T17:43:13.165Z,19.30
2022-09-05T17:46:35.215Z,19.20
2022-09-05T17:49:45.057Z,19.10
2022-09-05T17:53:24.879Z,19.00
2022-09-05T17:56:37.443Z,18.90
2022-09-05T17:59:44.220Z,18.90
2022-09-05T18:02:57.674Z,18.80
2022-09-05T18:06:06.637Z,18.70
2022-09-05T18:13:53.306Z,18.60
2022-09-05T18:20:46.267Z,18.50
2022-09-05T18:24:02.573Z,18.50
2022-09-05T18:27:35.069Z,18.40
2022-09-05T18:30:50.769Z,18.40
2022-09-05T18:34:40.282Z,18.40
2022-09-05T18:38:49.935Z,18.40
2022-09-05T18:42:04.187Z,18.50
2022-09-05T18:45:28.611Z,18.60
2022-09-05T18:48:52.327Z,18.50
2022-09-05T18:52:23.302Z,18.30
2022-09-05T18:56:14.287Z,18.10
2022-09-05T18:59:10.685Z,17.80
2022-09-05T19:02:34.903Z,17.70
2022-09-05T19:05:56.121Z,17.60
2022-09-05T19:09:28.499Z,17.50
2022-09-05T19:12:53.205Z,17.50
2022-09-05T19:16:42.782Z,17.50
2022-09-05T19:19:31.372Z,17.50
2022-09-05T19:23:09.679Z,17.50
2022-09-05T19:26:16.413Z,17.50
2022-09-05T19:36:49.132Z,17.50
2022-09-05T19:36:52.865Z,17.40
2022-09-05T19:37:13.091Z,17.50
2022-09-05T19:43:14.235Z,17.60
2022-09-05T19:47:39.123Z,17.60
2022-09-05T19:47:56.288Z,17.60
2022-09-05T19:50:24.194Z,17.60
2022-09-05T19:53:31.185Z,17.60
2022-09-05T19:56:46.863Z,17.70
2022-09-05T19:59:56.957Z,17.80
2022-09-05T20:03:05.009Z,17.80
2022-09-05T20:06:28.911Z,18.00
2022-09-05T20:09:44.770Z,18.10
2022-09-05T20:12:51.538Z,18.10
2022-09-05T20:16:01.272Z,18.10
2022-09-05T20:19:25.496Z,18.20
2022-09-05T20:22:49.190Z,18.20
2022-09-05T20:25:58.494Z,18.20
2022-09-05T20:29:09.110Z,18.30
2022-09-05T20:32:17.533Z,18.40
2022-09-05T20:41:11.613Z,18.40
2022-09-05T20:43:19.460Z,18.50
2022-09-05T20:43:27.433Z,18.60
2022-09-05T20:48:12.831Z,18.70
2022-09-05T20:54:20.156Z,18.80
2022-09-05T20:54:20.536Z,18.80
2022-09-05T20:56:54.892Z,18.80
2022-09-05T21:00:07.095Z,18.80
2022-09-05T21:03:17.833Z,18.90
2022-09-05T21:06:33.950Z,18.90
2022-09-05T21:09:55.914Z,19.00
2022-09-05T21:13:02.297Z,19.00
2022-09-05T21:16:17.004Z,19.00
2022-09-05T21:19:26.077Z,19.00
2022-09-05T21:22:43.159Z,19.00
2022-09-05T21:25:54.858Z,18.90
2022-09-05T21:29:08.356Z,18.80
2022-09-05T21:32:16.702Z,18.80
2022-09-05T21:35:34.221Z,18.80
2022-09-05T21:38:43.486Z,18.80
2022-09-05T21:41:55.992Z,18.80
2022-09-05T21:47:39.457Z,18.80
2022-09-05T21:48:46.333Z,18.80
2022-09-05T21:51:55.855Z,18.80
2022-09-05T21:59:20.624Z,18.90
2022-09-05T21:59:26.707Z,18.90
2022-09-05T22:02:01.390Z,18.80
2022-09-05T22:05:08.498Z,18.80
2022-09-05T22:08:14.974Z,18.80
2022-09-05T22:11:21.523Z,18.80
2022-09-05T22:14:29.134Z,18.80
2022-09-05T22:17:37.027Z,18.90
2022-09-05T22:20:44.286Z,18.90
2022-09-05T22:23:56.899Z,19.00
2022-09-05T22:27:12.179Z,19.00
2022-09-05T22:30:20.738Z,18.90
2022-09-05T22:33:26.890Z,18.80
2022-09-05T22:36:35.289Z,18.70
2022-09-05T22:39:44.433Z,18.70
2022-09-05T22:42:57.719Z,18.60
2022-09-05T22:46:06.286Z,18.60
2022-09-05T22:49:12.913Z,18.50
2022-09-05T22:52:19.280Z,18.40
2022-09-05T22:55:25.841Z,18.30
2022-09-05T22:58:36.887Z,18.30
2022-09-05T23:01:44.961Z,18.20
2022-09-05T23:04:51.190Z,18.10
2022-09-05T23:07:58.808Z,18.10
2022-09-05T23:11:08.858Z,18.20
2022-09-05T23:14:15.474Z,18.20
2022-09-05T23:17:23.214Z,18.10
2022-09-05T23:20:32.424Z,18.10
2022-09-05T23:23:39.947Z,18.10
2022-09-05T23:26:46.573Z,18.10
2022-09-05T23:29:52.970Z,18.10
2022-09-05T23:33:00.847Z,18.10
2022-09-05T23:36:10.893Z,18.10
2022-09-05T23:39:17.409Z,18.10
2022-09-05T23:42:23.599Z,18.10
2022-09-05T23:45:30.400Z,18.10
2022-09-05T23:48:38.235Z,18.10
2022-09-05T23:51:44.884Z,18.10
2022-09-05T23:54:51.088Z,18.10
2022-09-05T23:57:58.594Z,18.10
